createdAt,value
2023-04-12T00:00:19.691Z,36.00
2023-04-12T00:01:19.748Z,35.93
2023-04-12T00:02:19.963Z,35.88
2023-04-12T00:03:20.014Z,35.83
2023-04-12T00:04:19.989Z,35.81
2023-04-12T00:05:19.990Z,35.78
2023-04-12T00:06:19.922Z,35.77
2023-04-12T00:07:19.963Z,35.75
2023-04-12T00:08:19.992Z,35.77
2023-04-12T00:09:20.005Z,35.75
2023-04-12T00:10:20.022Z,35.77
2023-04-12T00:11:20.048Z,35.73
2023-04-12T00:12:20.063Z,35.75
2023-04-12T00:13:20.108Z,35.76
2023-04-12T00:14:20.098Z,35.75
2023-04-12T00:15:20.131Z,35.75
2023-04-12T00:16:20.187Z,35.77
2023-04-12T00:17:20.232Z,35.77
2023-04-12T00:18:20.199Z,35.77
2023-04-12T00:19:20.231Z,35.76
2023-04-12T00:20:20.245Z,35.77
2023-04-12T00:21:20.272Z,35.76
2023-04-12T00:22:20.277Z,35.79
2023-04-12T00:23:20.306Z,35.81
2023-04-12T00:24:20.328Z,35.81
2023-04-12T00:25:20.881Z,35.83
2023-04-12T00:26:20.377Z,35.80
2023-04-12T00:27:20.393Z,35.81
2023-04-12T00:28:20.397Z,35.81
2023-04-12T00:29:20.451Z,35.81
2023-04-12T00:30:20.443Z,35.81
2023-04-12T00:31:20.485Z,35.82
2023-04-12T00:32:20.497Z,35.81
2023-04-12T00:33:20.514Z,35.82
2023-04-12T00:34:20.533Z,35.84
2023-04-12T00:35:20.550Z,35.81
2023-04-12T00:36:20.612Z,35.81
2023-04-12T00:37:20.584Z,35.82
2023-04-12T00:38:20.609Z,35.83
2023-04-12T00:39:20.637Z,35.83
2023-04-12T00:40:20.669Z,35.84
2023-04-12T00:41:20.690Z,35.81
2023-04-12T00:42:20.706Z,35.83
2023-04-12T00:43:20.741Z,35.85
2023-04-12T00:44:20.756Z,35.83
2023-04-12T00:45:20.799Z,35.83
2023-04-12T00:46:20.841Z,35.84
2023-04-12T00:47:20.852Z,35.84
2023-04-12T00:48:20.867Z,35.84
2023-04-12T00:49:20.861Z,35.85
2023-04-12T00:50:20.878Z,35.82
2023-04-12T00:51:20.896Z,35.82
2023-04-12T00:52:20.924Z,35.84
2023-04-12T00:53:20.956Z,35.84
2023-04-12T00:54:20.954Z,35.82
2023-04-12T00:55:20.980Z,35.83
2023-04-12T00:56:21.007Z,35.83
2023-04-12T00:57:21.028Z,35.82
2023-04-12T00:58:21.046Z,35.80
2023-04-12T00:59:21.082Z,35.82
2023-04-12T01:00:21.123Z,35.81
2023-04-12T01:01:21.203Z,35.82
2023-04-12T01:02:21.293Z,35.80
2023-04-12T01:03:21.291Z,35.84
2023-04-12T01:04:21.193Z,35.83
2023-04-12T01:05:21.216Z,35.81
2023-04-12T01:06:21.245Z,35.80
2023-04-12T01:07:21.256Z,35.82
2023-04-12T01:08:21.287Z,35.84
2023-04-12T01:09:21.291Z,35.82
2023-04-12T01:10:21.321Z,35.83
2023-04-12T01:11:21.349Z,35.84
2023-04-12T01:12:21.381Z,35.83
2023-04-12T01:13:21.395Z,35.84
2023-04-12T01:14:21.416Z,35.83
2023-04-12T01:15:21.449Z,35.82
2023-04-12T01:16:21.511Z,35.84
2023-04-12T01:17:21.550Z,35.82
2023-04-12T01:18:21.524Z,35.81
2023-04-12T01:19:21.548Z,35.81
2023-04-12T01:20:21.597Z,35.79
2023-04-12T01:21:21.604Z,35.78
2023-04-12T01:22:21.628Z,35.81
2023-04-12T01:23:21.653Z,35.79
2023-04-12T01:24:21.677Z,35.81
2023-04-12T01:25:21.692Z,35.81
2023-04-12T01:26:21.848Z,35.83
2023-04-12T01:27:21.737Z,35.81
2023-04-12T01:28:21.757Z,35.79
2023-04-12T01:29:21.783Z,35.83
2023-04-12T01:30:22.225Z,35.80
2023-04-12T01:31:21.840Z,35.81
2023-04-12T01:32:21.869Z,35.82
2023-04-12T01:33:21.893Z,35.82
2023-04-12T01:34:21.892Z,35.81
2023-04-12T01:35:21.972Z,35.85
2023-04-12T01:36:21.934Z,35.82
2023-04-12T01:37:21.946Z,35.81
2023-04-12T01:38:21.970Z,35.81
2023-04-12T01:39:21.996Z,35.81
2023-04-12T01:40:22.020Z,35.81
2023-04-12T01:41:22.043Z,35.81
2023-04-12T01:42:22.071Z,35.80
2023-04-12T01:43:22.101Z,35.81
2023-04-12T01:44:22.140Z,35.81
2023-04-12T01:45:22.185Z,35.79
2023-04-12T01:46:22.174Z,35.79
2023-04-12T01:47:22.195Z,35.79
2023-04-12T01:48:22.211Z,35.79
2023-04-12T01:49:22.256Z,35.78
2023-04-12T01:50:22.251Z,35.80
2023-04-12T01:51:22.270Z,35.79
2023-04-12T01:52:22.320Z,35.79
2023-04-12T01:53:22.326Z,35.79
2023-04-12T01:54:22.372Z,35.80
2023-04-12T01:55:22.394Z,35.80
2023-04-12T01:56:22.386Z,35.78
2023-04-12T01:57:22.410Z,35.80
2023-04-12T01:58:22.432Z,35.77
2023-04-12T01:59:22.463Z,35.75
2023-04-12T02:00:22.484Z,35.75
2023-04-12T02:01:22.563Z,35.74
2023-04-12T02:02:22.700Z,35.76
2023-04-12T02:03:23.041Z,35.75
2023-04-12T02:04:22.590Z,35.74
2023-04-12T02:05:22.633Z,35.77
2023-04-12T02:06:22.656Z,35.76
2023-04-12T02:07:22.644Z,35.75
2023-04-12T02:08:22.663Z,35.76
2023-04-12T02:09:22.791Z,35.78
2023-04-12T02:10:22.720Z,35.78
2023-04-12T02:11:22.747Z,35.77
2023-04-12T02:12:22.776Z,35.74
2023-04-12T02:13:22.802Z,35.75
2023-04-12T02:14:22.829Z,35.75
2023-04-12T02:15:22.836Z,35.76
2023-04-12T02:16:22.908Z,35.76
2023-04-12T02:17:22.903Z,35.73
2023-04-12T02:18:22.907Z,35.75
2023-04-12T02:19:22.952Z,35.69
2023-04-12T02:20:22.957Z,35.73
2023-04-12T02:21:22.999Z,35.71
2023-04-12T02:22:22.998Z,35.71
2023-04-12T02:23:23.020Z,35.71
2023-04-12T02:24:23.049Z,35.71
2023-04-12T02:25:23.092Z,35.71
2023-04-12T02:26:23.114Z,35.71
2023-04-12T02:27:23.129Z,35.73
2023-04-12T02:28:23.191Z,35.71
2023-04-12T02:29:23.165Z,35.71
2023-04-12T02:30:23.192Z,35.70
2023-04-12T02:31:23.393Z,35.70
2023-04-12T02:32:23.256Z,35.69
2023-04-12T02:33:23.254Z,35.71
2023-04-12T02:34:23.290Z,35.70
2023-04-12T02:35:23.352Z,35.70
2023-04-12T02:36:23.340Z,35.69
2023-04-12T02:37:23.389Z,35.68
2023-04-12T02:38:23.402Z,35.69
2023-04-12T02:39:23.455Z,35.70
2023-04-12T02:40:23.460Z,35.70
2023-04-12T02:41:23.490Z,35.69
2023-04-12T02:42:23.513Z,35.68
2023-04-12T02:43:23.542Z,35.69
2023-04-12T02:44:23.563Z,35.66
2023-04-12T02:45:23.590Z,35.68
2023-04-12T02:46:23.677Z,35.67
2023-04-12T02:47:23.650Z,35.64
2023-04-12T02:48:23.674Z,35.66
2023-04-12T02:49:23.706Z,35.67
2023-04-12T02:50:23.726Z,35.65
2023-04-12T02:51:23.757Z,35.66
2023-04-12T02:52:23.775Z,35.61
2023-04-12T02:53:23.828Z,35.63
2023-04-12T02:54:23.831Z,35.65
2023-04-12T02:55:23.861Z,35.66
2023-04-12T02:56:23.894Z,35.65
2023-04-12T02:57:23.919Z,35.64
2023-04-12T02:58:23.933Z,35.65
2023-04-12T02:59:23.963Z,35.64
2023-04-12T03:00:23.988Z,35.64
2023-04-12T03:01:24.082Z,35.64
2023-04-12T03:02:24.422Z,35.60
2023-04-12T03:03:24.311Z,35.62
2023-04-12T03:04:24.207Z,35.61
2023-04-12T03:05:24.145Z,35.60
2023-04-12T03:06:24.149Z,35.58
2023-04-12T03:07:24.180Z,35.61
2023-04-12T03:08:24.211Z,35.60
2023-04-12T03:09:24.254Z,35.63
2023-04-12T03:10:24.258Z,35.60
2023-04-12T03:11:24.282Z,35.61
2023-04-12T03:12:24.318Z,35.58
2023-04-12T03:13:24.339Z,35.59
2023-04-12T03:14:24.383Z,35.57
2023-04-12T03:15:24.409Z,35.60
2023-04-12T03:16:24.462Z,35.58
2023-04-12T03:17:24.547Z,35.56
2023-04-12T03:18:24.547Z,35.56
2023-04-12T03:19:24.530Z,35.58
2023-04-12T03:20:24.596Z,35.57
2023-04-12T03:21:24.588Z,35.55
2023-04-12T03:22:24.622Z,35.55
2023-04-12T03:23:24.655Z,35.57
2023-04-12T03:24:24.673Z,35.55
2023-04-12T03:25:24.720Z,35.56
2023-04-12T03:26:24.708Z,35.57
2023-04-12T03:27:24.733Z,35.52
2023-04-12T03:28:24.748Z,35.51
2023-04-12T03:29:24.762Z,35.49
2023-04-12T03:30:24.773Z,35.44
2023-04-12T03:31:24.822Z,35.40
2023-04-12T03:32:24.849Z,35.37
2023-04-12T03:33:24.890Z,35.33
2023-04-12T03:34:24.938Z,35.30
2023-04-12T03:35:25.028Z,35.31
2023-04-12T03:36:25.081Z,35.29
2023-04-12T03:37:25.206Z,35.28
2023-04-12T03:38:25.248Z,35.27
2023-04-12T03:39:25.327Z,35.22
2023-04-12T03:40:25.394Z,35.21
2023-04-12T03:41:25.551Z,35.20
2023-04-12T03:42:33.123Z,35.17
2023-04-12T03:43:25.553Z,35.17
2023-04-12T03:44:25.557Z,35.13
2023-04-12T03:45:25.557Z,35.11
2023-04-12T03:46:25.587Z,35.11
2023-04-12T03:47:25.632Z,35.10
2023-04-12T03:48:25.568Z,35.09
2023-04-12T03:49:25.587Z,35.07
2023-04-12T03:50:25.566Z,35.09
2023-04-12T03:51:25.630Z,35.09
2023-04-12T03:52:25.571Z,35.09
2023-04-12T03:53:25.567Z,35.07
2023-04-12T03:54:25.575Z,35.09
2023-04-12T03:55:25.574Z,35.09
2023-04-12T03:56:25.570Z,35.06
2023-04-12T03:57:25.610Z,35.08
2023-04-12T03:58:25.590Z,35.10
2023-04-12T03:59:25.580Z,35.10
2023-04-12T04:00:25.581Z,35.10
2023-04-12T04:01:25.574Z,35.08
2023-04-12T04:02:25.817Z,35.07
2023-04-12T04:03:25.621Z,35.04
2023-04-12T04:04:25.699Z,35.02
2023-04-12T04:05:25.570Z,35.05
2023-04-12T04:06:25.611Z,35.03
2023-04-12T04:07:25.721Z,35.03
2023-04-12T04:08:25.748Z,35.04
2023-04-12T04:09:25.838Z,35.04
2023-04-12T04:10:25.880Z,35.04
2023-04-12T04:11:25.947Z,35.00
2023-04-12T04:12:26.008Z,35.01
2023-04-12T04:13:26.096Z,35.02
2023-04-12T04:14:26.122Z,35.00
2023-04-12T04:15:26.192Z,34.96
2023-04-12T04:16:26.263Z,34.96
2023-04-12T04:17:26.352Z,34.97
2023-04-12T04:18:26.370Z,34.96
2023-04-12T04:19:26.443Z,34.97
2023-04-12T04:20:27.870Z,34.95
2023-04-12T04:21:26.550Z,34.94
2023-04-12T04:22:26.618Z,34.97
2023-04-12T04:23:26.674Z,34.95
2023-04-12T04:24:26.728Z,34.97
2023-04-12T04:25:26.793Z,34.95
2023-04-12T04:26:26.857Z,34.95
2023-04-12T04:27:26.900Z,34.91
2023-04-12T04:28:26.961Z,34.91
2023-04-12T04:29:27.108Z,34.92
2023-04-12T04:30:27.107Z,34.95
2023-04-12T04:31:27.166Z,34.95
2023-04-12T04:32:27.229Z,34.98
2023-04-12T04:33:27.281Z,34.99
2023-04-12T04:34:27.338Z,34.95
2023-04-12T04:35:27.430Z,34.99
2023-04-12T04:36:27.454Z,34.98
2023-04-12T04:37:27.511Z,34.98
2023-04-12T04:38:27.591Z,34.98
2023-04-12T04:39:27.662Z,34.95
2023-04-12T04:40:27.680Z,34.93
2023-04-12T04:41:27.739Z,34.93
2023-04-12T04:42:27.795Z,34.94
2023-04-12T04:43:27.842Z,34.94
2023-04-12T04:44:27.933Z,34.94
2023-04-12T04:45:28.047Z,34.94
2023-04-12T04:46:28.024Z,34.93
2023-04-12T04:47:28.098Z,34.89
2023-04-12T04:48:28.130Z,34.89
2023-04-12T04:49:28.209Z,34.90
2023-04-12T04:50:28.269Z,34.89
2023-04-12T04:51:28.304Z,34.91
2023-04-12T04:52:28.348Z,34.90
2023-04-12T04:53:28.416Z,34.89
2023-04-12T04:54:28.456Z,34.89
2023-04-12T04:55:28.543Z,34.88
2023-04-12T04:56:28.582Z,34.86
2023-04-12T04:57:28.626Z,34.86
2023-04-12T04:58:28.673Z,34.90
2023-04-12T04:59:28.739Z,34.87
2023-04-12T05:00:28.782Z,34.88
2023-04-12T05:01:28.940Z,34.87
2023-04-12T05:02:28.973Z,34.85
2023-04-12T05:03:30.612Z,34.85
2023-04-12T05:04:29.033Z,34.83
2023-04-12T05:05:28.923Z,34.83
2023-04-12T05:06:28.926Z,34.83
2023-04-12T05:07:28.927Z,34.82
2023-04-12T05:08:28.946Z,34.82
2023-04-12T05:09:28.923Z,34.77
2023-04-12T05:10:28.922Z,34.56
2023-04-12T05:11:28.925Z,34.45
2023-04-12T05:12:28.909Z,34.27
2023-04-12T05:13:28.904Z,34.22
2023-04-12T05:14:43.988Z,34.25
2023-04-12T05:15:28.899Z,34.05
2023-04-12T05:16:28.945Z,33.86
2023-04-12T05:17:28.933Z,33.86
2023-04-12T05:18:28.911Z,33.94
2023-04-12T05:19:29.059Z,34.20
2023-04-12T05:20:28.883Z,34.51
2023-04-12T05:21:28.895Z,34.81
2023-04-12T05:22:28.881Z,34.82
2023-04-12T05:23:28.879Z,34.84
2023-04-12T05:24:28.874Z,34.56
2023-04-12T05:25:29.679Z,34.70
2023-04-12T05:26:28.863Z,34.86
2023-04-12T05:27:28.843Z,35.03
2023-04-12T05:28:28.841Z,35.15
2023-04-12T05:29:28.846Z,35.07
2023-04-12T05:30:28.861Z,35.17
2023-04-12T05:31:28.863Z,35.32
2023-04-12T05:32:28.842Z,35.25
2023-04-12T05:33:29.259Z,35.31
2023-04-12T05:34:28.822Z,35.16
2023-04-12T05:35:28.886Z,35.28
2023-04-12T05:36:28.816Z,35.34
2023-04-12T05:37:29.184Z,35.26
2023-04-12T05:38:28.796Z,35.23
2023-04-12T05:39:28.796Z,35.29
2023-04-12T05:40:28.787Z,35.32
2023-04-12T05:41:28.784Z,35.38
2023-04-12T05:42:28.783Z,35.47
2023-04-12T05:43:29.184Z,35.66
2023-04-12T05:44:29.198Z,35.70
2023-04-12T05:45:28.781Z,35.81
2023-04-12T05:46:28.810Z,35.61
2023-04-12T05:47:28.774Z,35.40
2023-04-12T05:48:28.761Z,35.67
2023-04-12T05:49:29.253Z,36.16
2023-04-12T05:50:28.743Z,36.01
2023-04-12T05:51:39.983Z,36.21
2023-04-12T05:52:29.190Z,36.21
2023-04-12T05:53:28.754Z,36.62
2023-04-12T05:54:28.753Z,36.70
2023-04-12T05:55:29.197Z,36.87
2023-04-12T05:56:28.738Z,36.88
2023-04-12T05:57:29.203Z,37.08
2023-04-12T05:58:28.761Z,37.24
2023-04-12T05:59:28.745Z,37.64
2023-04-12T06:00:28.907Z,37.53
2023-04-12T06:01:30.643Z,37.38
2023-04-12T06:02:28.895Z,37.28
2023-04-12T06:03:36.759Z,37.12
2023-04-12T06:04:38.442Z,37.20
2023-04-12T06:05:28.796Z,37.13
2023-04-12T06:06:28.741Z,37.04
2023-04-12T06:07:28.758Z,36.86
2023-04-12T06:08:29.216Z,36.84
2023-04-12T06:09:28.759Z,36.91
2023-04-12T06:10:28.744Z,36.81
2023-04-12T06:11:28.750Z,36.57
2023-04-12T06:12:28.749Z,36.58
2023-04-12T06:13:29.209Z,36.56
2023-04-12T06:14:28.722Z,36.13
2023-04-12T06:15:28.714Z,36.27
2023-04-12T06:16:28.758Z,36.25
2023-04-12T06:17:28.750Z,36.09
2023-04-12T06:18:28.710Z,36.00
2023-04-12T06:19:28.725Z,35.83
2023-04-12T06:20:28.686Z,35.91
2023-04-12T06:21:28.738Z,35.90
2023-04-12T06:22:28.657Z,35.96
2023-04-12T06:23:28.704Z,36.01
2023-04-12T06:24:28.637Z,35.85
2023-04-12T06:25:28.624Z,35.89
2023-04-12T06:26:37.274Z,35.94
2023-04-12T06:27:28.554Z,35.81
2023-04-12T06:28:28.706Z,35.88
2023-04-12T06:29:28.542Z,35.80
2023-04-12T06:30:28.533Z,35.99
2023-04-12T06:31:28.520Z,36.01
2023-04-12T06:32:28.725Z,36.00
2023-04-12T06:33:28.713Z,36.04
2023-04-12T06:34:28.488Z,36.01
2023-04-12T06:35:28.482Z,36.06
2023-04-12T06:36:28.478Z,36.15
2023-04-12T06:37:28.723Z,36.09
2023-04-12T06:38:28.461Z,36.01
2023-04-12T06:39:28.703Z,36.04
2023-04-12T06:40:28.451Z,36.08
2023-04-12T06:41:28.445Z,35.93
2023-04-12T06:42:28.681Z,36.00
2023-04-12T06:43:28.755Z,36.24
2023-04-12T06:44:28.436Z,36.68
2023-04-12T06:45:28.399Z,36.53
2023-04-12T06:46:28.552Z,36.44
2023-04-12T06:47:28.730Z,36.41
2023-04-12T06:48:28.705Z,36.66
2023-04-12T06:49:28.356Z,36.58
2023-04-12T06:50:28.353Z,36.84
2023-04-12T06:51:28.350Z,36.84
2023-04-12T06:52:28.323Z,37.11
2023-04-12T06:53:28.820Z,36.98
2023-04-12T06:54:28.290Z,37.26
2023-04-12T06:55:28.276Z,37.22
2023-04-12T06:56:28.261Z,37.13
2023-04-12T06:57:31.517Z,37.28
2023-04-12T06:58:28.723Z,37.48
2023-04-12T06:59:28.197Z,37.74
2023-04-12T07:00:28.185Z,37.75
2023-04-12T07:01:28.196Z,37.97
2023-04-12T07:02:28.279Z,38.04
2023-04-12T07:03:28.280Z,38.04
2023-04-12T07:04:28.119Z,37.96
2023-04-12T07:05:28.099Z,38.04
2023-04-12T07:06:28.112Z,38.16
2023-04-12T07:07:28.052Z,38.07
2023-04-12T07:08:30.203Z,38.06
2023-04-12T07:09:28.046Z,38.14
2023-04-12T07:10:27.995Z,38.36
2023-04-12T07:11:27.984Z,38.52
2023-04-12T07:12:27.966Z,38.39
2023-04-12T07:13:28.240Z,38.37
2023-04-12T07:14:28.222Z,38.36
2023-04-12T07:15:27.936Z,38.41
2023-04-12T07:16:27.951Z,38.31
2023-04-12T07:17:28.301Z,38.30
2023-04-12T07:18:27.873Z,38.36
2023-04-12T07:19:27.895Z,38.47
2023-04-12T07:20:28.250Z,38.63
2023-04-12T07:21:27.938Z,38.74
2023-04-12T07:22:27.876Z,38.75
2023-04-12T07:23:27.858Z,38.75
2023-04-12T07:24:28.253Z,38.94
2023-04-12T07:25:27.866Z,38.97
2023-04-12T07:26:27.814Z,39.00
2023-04-12T07:27:28.812Z,39.01
2023-04-12T07:28:27.806Z,39.06
2023-04-12T07:29:28.245Z,39.11
2023-04-12T07:30:28.812Z,39.15
2023-04-12T07:31:27.740Z,39.11
2023-04-12T07:32:28.387Z,39.03
2023-04-12T07:33:27.836Z,39.09
2023-04-12T07:34:28.921Z,39.11
2023-04-12T07:35:27.702Z,38.79
2023-04-12T07:36:27.701Z,38.66
2023-04-12T07:37:27.768Z,38.75
2023-04-12T07:38:27.700Z,38.72
2023-04-12T07:39:27.780Z,38.58
2023-04-12T07:40:27.692Z,38.52
2023-04-12T07:41:27.837Z,38.54
2023-04-12T07:42:27.759Z,38.50
2023-04-12T07:43:27.757Z,38.57
2023-04-12T07:44:27.645Z,38.86
2023-04-12T07:45:27.758Z,38.78
2023-04-12T07:46:27.783Z,38.77
2023-04-12T07:47:28.831Z,38.93
2023-04-12T07:48:27.611Z,38.88
2023-04-12T07:49:27.827Z,39.04
2023-04-12T07:50:27.593Z,38.97
2023-04-12T07:51:27.577Z,39.12
2023-04-12T07:52:27.585Z,39.06
2023-04-12T07:53:27.849Z,38.97
2023-04-12T07:54:27.763Z,39.06
2023-04-12T07:55:27.651Z,38.98
2023-04-12T07:56:27.632Z,39.16
2023-04-12T07:57:28.051Z,39.11
2023-04-12T07:58:27.602Z,39.03
2023-04-12T07:59:27.603Z,39.11
2023-04-12T08:00:29.622Z,38.94
2023-04-12T08:01:27.588Z,38.88
2023-04-12T08:02:27.930Z,39.12
2023-04-12T08:03:27.682Z,39.13
2023-04-12T08:04:28.683Z,39.20
2023-04-12T08:05:27.638Z,39.14
2023-04-12T08:06:30.551Z,39.03
2023-04-12T08:07:28.495Z,39.09
2023-04-12T08:08:27.483Z,39.16
2023-04-12T08:09:30.681Z,39.18
2023-04-12T08:10:27.459Z,39.23
2023-04-12T08:11:27.452Z,39.27
2023-04-12T08:12:27.797Z,39.21
2023-04-12T08:13:27.450Z,39.34
2023-04-12T08:14:27.775Z,39.24
2023-04-12T08:15:27.832Z,39.32
2023-04-12T08:16:27.448Z,39.29
2023-04-12T08:17:27.538Z,39.24
2023-04-12T08:18:27.352Z,39.24
2023-04-12T08:19:27.329Z,39.20
2023-04-12T08:20:27.774Z,39.21
2023-04-12T08:21:27.299Z,39.18
2023-04-12T08:22:27.387Z,39.17
2023-04-12T08:23:27.360Z,39.17
2023-04-12T08:24:27.306Z,39.18
2023-04-12T08:25:27.238Z,39.32
2023-04-12T08:26:27.323Z,39.34
2023-04-12T08:27:27.397Z,39.21
2023-04-12T08:28:27.233Z,39.16
2023-04-12T08:29:27.217Z,39.10
2023-04-12T08:30:27.152Z,39.00
2023-04-12T08:31:27.188Z,39.00
2023-04-12T08:32:27.283Z,39.21
2023-04-12T08:33:27.431Z,38.96
2023-04-12T08:34:27.743Z,38.82
2023-04-12T08:35:27.349Z,38.85
2023-04-12T08:36:27.537Z,39.02
2023-04-12T08:37:27.774Z,38.83
2023-04-12T08:38:41.413Z,38.62
2023-04-12T08:39:27.773Z,38.51
2023-04-12T08:40:27.481Z,38.48
2023-04-12T08:41:28.283Z,38.49
2023-04-12T08:42:27.763Z,38.35
2023-04-12T08:43:27.434Z,38.46
2023-04-12T08:44:27.407Z,38.65
2023-04-12T08:45:27.435Z,38.74
2023-04-12T08:46:28.473Z,38.86
2023-04-12T08:47:28.024Z,38.91
2023-04-12T08:48:27.334Z,39.01
2023-04-12T08:49:27.583Z,38.91
2023-04-12T08:50:27.790Z,38.76
2023-04-12T08:51:28.278Z,38.72
2023-04-12T08:52:27.781Z,38.66
2023-04-12T08:53:27.331Z,38.58
2023-04-12T08:54:27.414Z,38.53
2023-04-12T08:55:27.421Z,38.51
2023-04-12T08:56:27.456Z,38.57
2023-04-12T08:57:27.872Z,38.53
2023-04-12T08:58:27.756Z,38.66
2023-04-12T08:59:27.562Z,38.60
2023-04-12T09:00:27.808Z,38.58
2023-04-12T09:01:27.742Z,38.40
2023-04-12T09:02:27.730Z,38.50
2023-04-12T09:03:28.974Z,38.46
2023-04-12T09:04:27.675Z,38.34
2023-04-12T09:05:27.662Z,38.36
2023-04-12T09:06:27.545Z,38.32
2023-04-12T09:07:27.531Z,38.28
2023-04-12T09:08:27.759Z,38.32
2023-04-12T09:09:27.485Z,38.37
2023-04-12T09:10:27.472Z,38.40
2023-04-12T09:11:27.438Z,38.30
2023-04-12T09:12:27.452Z,38.27
2023-04-12T09:13:27.758Z,38.43
2023-04-12T09:14:27.358Z,38.57
2023-04-12T09:15:27.775Z,38.58
2023-04-12T09:16:27.380Z,38.62
2023-04-12T09:17:27.393Z,38.56
2023-04-12T09:18:27.294Z,38.74
2023-04-12T09:19:27.280Z,38.87
2023-04-12T09:20:27.236Z,38.89
2023-04-12T09:21:27.207Z,38.66
2023-04-12T09:22:27.207Z,38.54
2023-04-12T09:23:27.263Z,38.45
2023-04-12T09:24:27.271Z,38.32
2023-04-12T09:25:27.379Z,38.29
2023-04-12T09:26:27.081Z,38.18
2023-04-12T09:27:27.061Z,38.20
2023-04-12T09:28:27.076Z,38.14
2023-04-12T09:29:34.703Z,38.08
2023-04-12T09:30:26.965Z,38.07
2023-04-12T09:31:27.007Z,38.15
2023-04-12T09:32:26.971Z,38.30
2023-04-12T09:33:27.311Z,38.64
2023-04-12T09:34:28.084Z,38.38
2023-04-12T09:35:26.835Z,38.22
2023-04-12T09:36:26.818Z,38.14
2023-04-12T09:37:26.807Z,38.07
2023-04-12T09:38:26.818Z,37.98
2023-04-12T09:39:26.783Z,37.70
2023-04-12T09:40:26.801Z,37.57
2023-04-12T09:41:27.460Z,37.63
2023-04-12T09:42:33.931Z,37.67
2023-04-12T09:43:37.269Z,37.73
2023-04-12T09:44:26.787Z,37.91
2023-04-12T09:45:26.875Z,37.79
2023-04-12T09:46:26.782Z,37.79
2023-04-12T09:47:26.696Z,37.69
2023-04-12T09:48:26.630Z,37.84
2023-04-12T09:49:26.628Z,37.83
2023-04-12T09:50:26.854Z,37.70
2023-04-12T09:51:27.664Z,37.59
2023-04-12T09:52:26.482Z,37.57
2023-04-12T09:53:26.478Z,37.53
2023-04-12T09:54:26.424Z,37.34
2023-04-12T09:55:26.786Z,37.26
2023-04-12T09:56:26.363Z,37.16
2023-04-12T09:57:26.330Z,37.05
2023-04-12T09:58:26.318Z,36.75
2023-04-12T09:59:26.290Z,36.45
2023-04-12T10:00:26.232Z,36.16
2023-04-12T10:01:26.319Z,35.93
2023-04-12T10:02:27.469Z,35.77
2023-04-12T10:03:26.391Z,35.74
2023-04-12T10:04:26.346Z,35.67
2023-04-12T10:05:27.214Z,35.77
2023-04-12T10:06:26.270Z,35.55
2023-04-12T10:07:26.250Z,35.66
2023-04-12T10:08:26.239Z,35.46
2023-04-12T10:09:26.275Z,35.32
2023-04-12T10:10:26.190Z,35.28
2023-04-12T10:11:26.165Z,35.32
2023-04-12T10:12:26.161Z,35.42
2023-04-12T10:13:26.298Z,35.61
2023-04-12T10:14:26.152Z,35.74
2023-04-12T10:15:26.186Z,35.75
2023-04-12T10:16:26.245Z,35.58
2023-04-12T10:17:26.213Z,35.75
2023-04-12T10:18:26.282Z,35.86
2023-04-12T10:19:26.234Z,35.92
2023-04-12T10:20:29.211Z,36.07
2023-04-12T10:21:26.254Z,35.86
2023-04-12T10:22:26.198Z,35.66
2023-04-12T10:23:26.351Z,35.68
2023-04-12T10:24:26.331Z,35.72
2023-04-12T10:25:26.133Z,36.06
2023-04-12T10:26:26.123Z,36.12
2023-04-12T10:27:26.113Z,36.23
2023-04-12T10:28:26.053Z,36.15
2023-04-12T10:29:26.302Z,36.37
2023-04-12T10:30:26.058Z,36.46
2023-04-12T10:31:26.376Z,36.77
2023-04-12T10:32:26.008Z,36.72
2023-04-12T10:33:26.359Z,36.83
2023-04-12T10:34:25.925Z,37.04
2023-04-12T10:35:25.935Z,37.03
2023-04-12T10:36:25.935Z,37.22
2023-04-12T10:37:25.908Z,37.20
2023-04-12T10:38:25.841Z,37.31
2023-04-12T10:39:25.831Z,37.22
2023-04-12T10:40:25.799Z,37.20
2023-04-12T10:41:25.780Z,37.19
2023-04-12T10:42:25.741Z,37.38
2023-04-12T10:43:25.750Z,37.32
2023-04-12T10:44:25.729Z,37.23
2023-04-12T10:45:25.684Z,37.25
2023-04-12T10:46:25.642Z,37.24
2023-04-12T10:47:25.712Z,37.27
2023-04-12T10:48:25.700Z,37.28
2023-04-12T10:49:25.492Z,37.28
2023-04-12T10:50:25.821Z,37.45
2023-04-12T10:51:25.520Z,37.56
2023-04-12T10:52:25.390Z,37.63
2023-04-12T10:53:25.585Z,37.61
2023-04-12T10:54:25.329Z,37.51
2023-04-12T10:55:25.289Z,37.51
2023-04-12T10:56:25.382Z,37.52
2023-04-12T10:57:25.253Z,37.47
2023-04-12T10:58:25.224Z,37.36
2023-04-12T10:59:34.403Z,37.36
2023-04-12T11:00:25.148Z,37.41
2023-04-12T11:01:25.165Z,37.43
2023-04-12T11:02:25.271Z,37.47
2023-04-12T11:03:25.189Z,37.46
2023-04-12T11:04:25.058Z,37.42
2023-04-12T11:05:24.968Z,37.42
2023-04-12T11:06:27.863Z,37.47
2023-04-12T11:07:25.426Z,37.50
2023-04-12T11:08:24.804Z,37.49
2023-04-12T11:09:24.797Z,37.55
2023-04-12T11:10:24.785Z,37.55
2023-04-12T11:11:24.767Z,37.54
2023-04-12T11:12:24.677Z,37.52
2023-04-12T11:13:24.694Z,37.59
2023-04-12T11:14:24.695Z,37.63
2023-04-12T11:15:24.993Z,37.74
2023-04-12T11:16:24.874Z,37.65
2023-04-12T11:17:24.843Z,37.16
2023-04-12T11:18:24.507Z,37.42
2023-04-12T11:19:24.426Z,37.20
2023-04-12T11:20:24.365Z,37.27
2023-04-12T11:21:24.336Z,37.29
2023-04-12T11:22:24.304Z,37.16
2023-04-12T11:23:24.316Z,37.13
2023-04-12T11:24:24.260Z,37.04
2023-04-12T11:25:24.242Z,37.02
2023-04-12T11:26:24.194Z,37.03
2023-04-12T11:27:24.141Z,36.88
2023-04-12T11:28:29.683Z,36.62
2023-04-12T11:29:24.076Z,36.55
2023-04-12T11:30:24.038Z,36.47
2023-04-12T11:31:24.073Z,36.31
2023-04-12T11:32:24.024Z,36.18
2023-04-12T11:33:23.921Z,36.03
2023-04-12T11:34:24.308Z,36.06
2023-04-12T11:35:23.898Z,35.97
2023-04-12T11:36:24.303Z,35.94
2023-04-12T11:37:23.781Z,35.89
2023-04-12T11:38:23.757Z,35.71
2023-04-12T11:39:23.706Z,35.82
2023-04-12T11:40:23.673Z,35.61
2023-04-12T11:41:23.846Z,35.81
2023-04-12T11:42:23.608Z,35.57
2023-04-12T11:43:23.619Z,35.43
2023-04-12T11:44:23.551Z,35.59
2023-04-12T11:45:23.488Z,35.67
2023-04-12T11:46:23.893Z,35.72
2023-04-12T11:47:23.452Z,35.88
2023-04-12T11:48:23.378Z,35.74
2023-04-12T11:49:23.359Z,35.85
2023-04-12T11:50:23.935Z,35.77
2023-04-12T11:51:23.313Z,35.67
2023-04-12T11:52:23.205Z,35.70
2023-04-12T11:53:23.165Z,35.81
2023-04-12T11:54:23.306Z,35.68
2023-04-12T11:55:23.103Z,35.73
2023-04-12T11:56:23.072Z,35.59
2023-04-12T11:57:23.339Z,35.61
2023-04-12T11:58:22.977Z,35.44
2023-04-12T11:59:22.950Z,35.48
2023-04-12T12:00:23.310Z,35.42
2023-04-12T12:01:22.891Z,35.58
2023-04-12T12:02:24.326Z,35.61
2023-04-12T12:03:23.767Z,35.75
2023-04-12T12:04:23.177Z,35.51
2023-04-12T12:05:23.079Z,35.61
2023-04-12T12:06:23.007Z,35.37
2023-04-12T12:07:24.175Z,35.44
2023-04-12T12:08:22.877Z,35.73
2023-04-12T12:09:22.891Z,35.84
2023-04-12T12:10:40.014Z,36.09
2023-04-12T12:11:22.873Z,36.11
2023-04-12T12:12:22.786Z,36.16
2023-04-12T12:13:22.814Z,36.16
2023-04-12T12:14:22.696Z,36.19
2023-04-12T12:15:22.677Z,36.21
2023-04-12T12:16:22.716Z,36.22
2023-04-12T12:17:22.589Z,36.24
2023-04-12T12:18:22.522Z,36.25
2023-04-12T12:19:22.490Z,36.30
2023-04-12T12:20:22.443Z,36.42
2023-04-12T12:21:22.389Z,36.41
2023-04-12T12:22:22.370Z,36.35
2023-04-12T12:23:22.288Z,36.43
2023-04-12T12:24:22.232Z,36.39
2023-04-12T12:25:22.182Z,36.33
2023-04-12T12:26:22.125Z,36.29
2023-04-12T12:27:22.135Z,36.27
2023-04-12T12:28:22.061Z,36.26
2023-04-12T12:29:22.024Z,36.33
2023-04-12T12:30:21.934Z,36.64
2023-04-12T12:31:21.897Z,36.56
2023-04-12T12:32:21.850Z,36.56
2023-04-12T12:33:28.992Z,36.57
2023-04-12T12:34:21.824Z,36.56
2023-04-12T12:35:21.661Z,36.57
2023-04-12T12:36:21.609Z,36.58
2023-04-12T12:37:21.568Z,36.55
2023-04-12T12:38:21.516Z,36.53
2023-04-12T12:39:21.467Z,36.55
2023-04-12T12:40:21.484Z,36.58
2023-04-12T12:41:21.365Z,36.56
2023-04-12T12:42:21.325Z,36.51
2023-04-12T12:43:21.261Z,36.46
2023-04-12T12:44:21.329Z,36.45
2023-04-12T12:45:21.270Z,36.47
2023-04-12T12:46:21.370Z,36.54
2023-04-12T12:47:21.397Z,36.55
2023-04-12T12:48:21.037Z,36.49
2023-04-12T12:49:20.915Z,36.50
2023-04-12T12:50:22.041Z,36.47
2023-04-12T12:51:20.815Z,36.38
2023-04-12T12:52:20.777Z,36.33